createdAt,value
2024-04-24T00:02:24.646Z,101379.84
2024-04-24T00:04:51.370Z,101374.00
2024-04-24T00:07:18.127Z,101372.16
2024-04-24T00:09:44.628Z,101377.53
2024-04-24T00:12:11.133Z,101372.25
2024-04-24T00:14:37.632Z,101372.94
2024-04-24T00:17:05.176Z,101371.88
2024-04-24T00:19:31.787Z,101370.41
2024-04-24T00:21:58.318Z,101357.53
2024-04-24T00:24:24.820Z,101335.19
2024-04-24T00:26:51.375Z,101329.25
2024-04-24T00:29:18.003Z,101336.00
2024-04-24T00:31:44.697Z,101331.28
2024-04-24T00:34:11.243Z,101334.53
2024-04-24T00:36:37.749Z,101324.56
2024-04-24T00:39:04.272Z,101321.75
2024-04-24T00:41:30.811Z,101324.56
2024-04-24T00:43:57.332Z,101313.53
2024-04-24T00:46:25.291Z,101309.00
2024-04-24T00:48:53.121Z,101307.97
2024-04-24T00:51:21.158Z,101309.66
2024-04-24T00:53:48.190Z,101303.13
2024-04-24T00:56:14.918Z,101299.75
2024-04-24T00:58:41.727Z,101295.25
2024-04-24T01:01:08.618Z,101296.41
2024-04-24T01:03:35.186Z,101291.34
2024-04-24T01:06:01.676Z,101292.38
2024-04-24T01:08:28.275Z,101289.22
2024-04-24T01:10:58.931Z,101295.88
2024-04-24T01:13:26.293Z,101296.72
2024-04-24T01:16:09.941Z,101286.31
2024-04-24T01:18:39.724Z,101289.34
2024-04-24T01:21:07.966Z,101291.00
2024-04-24T01:23:40.854Z,101271.19
2024-04-24T01:26:13.327Z,101275.25
2024-04-24T01:28:39.935Z,101276.44
2024-04-24T01:31:06.449Z,101267.91
2024-04-24T01:33:33.017Z,101272.22
2024-04-24T01:35:59.681Z,101273.19
2024-04-24T01:38:26.351Z,101260.16
2024-04-24T01:40:53.115Z,101261.63
2024-04-24T01:43:19.657Z,101261.63
2024-04-24T01:45:46.254Z,101247.16
2024-04-24T01:48:12.945Z,101248.13
2024-04-24T01:50:40.079Z,101252.50
2024-04-24T01:53:06.981Z,101242.28
2024-04-24T01:55:33.580Z,101240.09
2024-04-24T01:58:00.124Z,101236.16
2024-04-24T02:00:26.640Z,101235.31
2024-04-24T02:02:53.260Z,101231.97
2024-04-24T02:05:19.960Z,101232.13
2024-04-24T02:07:46.598Z,101230.56
2024-04-24T02:10:13.130Z,101234.38
2024-04-24T02:12:39.770Z,101229.47
2024-04-24T02:15:06.897Z,101234.00
2024-04-24T02:17:33.508Z,101223.47
2024-04-24T02:20:00.186Z,101224.94
2024-04-24T02:22:26.878Z,101231.16
2024-04-24T02:25:12.300Z,101229.47
2024-04-24T02:27:38.843Z,101220.09
2024-04-24T02:30:06.095Z,101226.06
2024-04-24T02:32:32.770Z,101213.53
2024-04-24T02:34:59.460Z,101208.94
2024-04-24T02:37:26.032Z,101199.63
2024-04-24T02:39:52.697Z,101205.25
2024-04-24T02:42:19.208Z,101208.13
2024-04-24T02:44:45.734Z,101199.72
2024-04-24T02:47:12.393Z,101196.72
2024-04-24T02:49:38.915Z,101192.34
2024-04-24T02:52:05.511Z,101175.31
2024-04-24T02:54:32.024Z,101173.63
2024-04-24T02:56:58.556Z,101173.63
2024-04-24T02:59:25.217Z,101176.44
2024-04-24T03:01:51.808Z,101166.44
2024-04-24T03:04:18.415Z,101177.00
2024-04-24T03:06:45.306Z,101183.84
2024-04-24T03:09:12.455Z,101183.56
2024-04-24T03:11:39.971Z,101170.09
2024-04-24T03:14:06.550Z,101172.13
2024-04-24T03:16:33.806Z,101168.22
2024-04-24T03:19:00.548Z,101159.16
2024-04-24T03:21:27.128Z,101151.47
2024-04-24T03:23:53.673Z,101145.97
2024-04-24T03:26:20.237Z,101136.28
2024-04-24T03:28:46.759Z,101138.69
2024-04-24T03:31:13.471Z,101134.63
2024-04-24T03:33:40.018Z,101139.31
2024-04-24T03:36:06.926Z,101135.94
2024-04-24T03:38:33.446Z,101129.00
2024-04-24T03:40:59.984Z,101125.66
2024-04-24T03:43:26.523Z,101125.66
2024-04-24T03:45:53.080Z,101124.66
2024-04-24T03:48:19.679Z,101122.44
2024-04-24T03:50:46.299Z,101113.19
2024-04-24T03:53:12.839Z,101113.66
2024-04-24T03:55:39.505Z,101115.34
2024-04-24T03:58:06.089Z,101108.16
2024-04-24T04:00:32.585Z,101101.28
2024-04-24T04:02:59.215Z,101100.13
2024-04-24T04:05:25.935Z,101098.91
2024-04-24T04:07:59.660Z,101099.31
2024-04-24T04:10:26.227Z,101094.75
2024-04-24T04:12:52.779Z,101088.72
2024-04-24T04:15:19.490Z,101087.66
2024-04-24T04:17:46.923Z,101078.25
2024-04-24T04:20:13.765Z,101081.91
2024-04-24T04:22:42.600Z,101081.91
2024-04-24T04:25:09.750Z,101087.44
2024-04-24T04:27:36.601Z,101075.38
2024-04-24T04:30:03.455Z,101082.00
2024-04-24T04:32:30.062Z,101084.22
2024-04-24T04:34:56.673Z,101084.59
2024-04-24T04:37:23.290Z,101086.44
2024-04-24T04:39:49.814Z,101093.44
2024-04-24T04:42:16.424Z,101088.19
2024-04-24T04:44:42.949Z,101087.88
2024-04-24T04:47:09.551Z,101085.00
2024-04-24T04:49:36.104Z,101080.63
2024-04-24T04:52:02.681Z,101071.44
2024-04-24T04:54:29.230Z,101065.81
2024-04-24T04:56:55.786Z,101073.03
2024-04-24T04:59:22.489Z,101066.09
2024-04-24T05:01:49.045Z,101068.63
2024-04-24T05:04:15.862Z,101061.94
2024-04-24T05:06:42.489Z,101065.00
2024-04-24T05:09:08.997Z,101057.13
2024-04-24T05:11:35.687Z,101051.13
2024-04-24T05:14:02.274Z,101049.16
2024-04-24T05:16:28.841Z,101046.84
2024-04-24T05:18:55.470Z,101055.25
2024-04-24T05:21:22.159Z,101046.88
2024-04-24T05:23:49.085Z,101047.44
2024-04-24T05:26:34.220Z,101039.06
2024-04-24T05:29:08.811Z,101039.59
2024-04-24T05:31:38.103Z,101045.13
2024-04-24T05:34:05.181Z,101050.28
2024-04-24T05:36:31.804Z,101029.56
2024-04-24T05:38:58.311Z,101037.28
2024-04-24T05:41:24.962Z,101024.91
2024-04-24T05:43:51.861Z,101037.59
2024-04-24T05:46:18.656Z,101037.75
2024-04-24T05:48:45.441Z,101028.38
2024-04-24T05:51:12.036Z,101029.91
2024-04-24T05:53:38.532Z,101021.19
2024-04-24T05:56:05.465Z,101030.19
2024-04-24T05:58:31.984Z,101028.56
2024-04-24T06:00:58.586Z,101020.06
2024-04-24T06:03:25.143Z,101018.44
2024-04-24T06:05:51.736Z,101016.13
2024-04-24T06:08:18.274Z,101011.41
2024-04-24T06:10:44.890Z,101004.56
2024-04-24T06:13:11.442Z,101007.41
2024-04-24T06:15:37.964Z,101008.44
2024-04-24T06:18:04.859Z,101010.63
2024-04-24T06:20:31.451Z,100999.91
2024-04-24T06:22:58.115Z,101006.63
2024-04-24T06:25:24.620Z,101000.78
2024-04-24T06:27:51.206Z,100992.59
2024-04-24T06:30:17.855Z,100997.78
2024-04-24T06:32:44.497Z,100993.63
2024-04-24T06:35:11.219Z,100993.44
2024-04-24T06:37:37.835Z,100986.09
2024-04-24T06:40:04.787Z,100991.78
2024-04-24T06:42:31.284Z,100988.16
2024-04-24T06:44:58.000Z,100988.81
2024-04-24T06:47:24.608Z,100984.31
2024-04-24T06:49:51.194Z,100987.34
2024-04-24T06:52:17.732Z,100983.50
2024-04-24T06:54:44.248Z,100973.31
2024-04-24T06:57:13.286Z,100969.13
2024-04-24T06:59:39.832Z,100978.69
2024-04-24T07:02:06.483Z,100975.50
2024-04-24T07:04:33.135Z,100978.16
2024-04-24T07:07:00.003Z,100962.91
2024-04-24T07:09:26.569Z,100961.91
2024-04-24T07:11:53.237Z,100962.41
2024-04-24T07:14:19.979Z,100960.38
2024-04-24T07:16:46.521Z,100961.69
2024-04-24T07:19:14.912Z,100964.69
2024-04-24T07:21:41.720Z,100955.31
2024-04-24T07:24:08.317Z,100961.66
2024-04-24T07:26:34.830Z,100965.66
2024-04-24T07:29:01.477Z,100957.28
2024-04-24T07:31:29.212Z,100952.28
2024-04-24T07:33:55.945Z,100958.50
2024-04-24T07:36:22.502Z,100978.44
2024-04-24T07:38:49.731Z,100975.31
2024-04-24T07:41:16.788Z,100972.25
2024-04-24T07:43:43.361Z,100979.50
2024-04-24T07:46:10.495Z,100981.69
2024-04-24T07:48:37.208Z,100975.47
2024-04-24T07:51:04.126Z,100980.66
2024-04-24T07:53:32.263Z,100974.31
2024-04-24T07:56:00.062Z,100968.09
2024-04-24T07:58:26.678Z,100973.81
2024-04-24T08:00:53.763Z,100969.09
2024-04-24T08:03:20.486Z,100972.59
2024-04-24T08:05:47.110Z,100970.06
2024-04-24T08:08:13.639Z,100965.03
2024-04-24T08:10:40.199Z,100961.47
2024-04-24T08:13:06.692Z,100962.44
2024-04-24T08:15:33.232Z,100963.41
2024-04-24T08:17:59.857Z,100959.19
2024-04-24T08:20:26.481Z,100964.41
2024-04-24T08:22:53.094Z,100959.16
2024-04-24T08:25:19.671Z,100959.81
2024-04-24T08:27:46.313Z,100953.59
2024-04-24T08:30:12.984Z,100953.34
2024-04-24T08:32:39.735Z,100952.91
2024-04-24T08:35:06.637Z,100944.97
2024-04-24T08:37:33.231Z,100955.38
2024-04-24T08:39:59.743Z,100952.72
2024-04-24T08:42:26.606Z,100955.16
2024-04-24T08:44:56.039Z,100961.00
2024-04-24T08:47:23.072Z,100950.19
2024-04-24T08:49:50.521Z,100950.13
2024-04-24T08:52:19.249Z,100946.84
2024-04-24T08:54:47.233Z,100941.00
2024-04-24T08:57:15.249Z,100941.91
2024-04-24T08:59:43.856Z,100952.38
2024-04-24T09:02:11.900Z,100946.06
2024-04-24T09:04:41.564Z,100943.34
2024-04-24T09:07:08.970Z,100939.44
2024-04-24T09:09:35.565Z,100938.41
2024-04-24T09:12:04.956Z,100935.63
2024-04-24T09:14:32.416Z,100934.09
2024-04-24T09:16:59.742Z,100922.59
2024-04-24T09:19:26.256Z,100922.56
2024-04-24T09:21:52.838Z,100918.38
2024-04-24T09:24:20.025Z,100922.28
2024-04-24T09:26:50.269Z,100919.16
2024-04-24T09:29:17.444Z,100918.78
2024-04-24T09:31:44.349Z,100917.44
2024-04-24T09:34:11.815Z,100917.28
2024-04-24T09:36:38.926Z,100918.44
2024-04-24T09:39:09.359Z,100909.66
2024-04-24T09:41:36.802Z,100920.97
2024-04-24T09:44:04.055Z,100917.63
2024-04-24T09:46:30.960Z,100918.16
2024-04-24T09:48:58.176Z,100918.88
2024-04-24T09:51:24.910Z,100922.72
2024-04-24T09:53:51.567Z,100913.81
2024-04-24T09:56:29.181Z,100915.25
2024-04-24T09:58:56.557Z,100909.16
2024-04-24T10:01:23.579Z,100901.06
2024-04-24T10:03:55.583Z,100901.47
2024-04-24T10:06:23.572Z,100919.84
2024-04-24T10:08:51.509Z,100937.06
2024-04-24T10:11:21.622Z,100943.56
2024-04-24T10:13:50.349Z,100941.78
2024-04-24T10:16:17.438Z,100936.59
2024-04-24T10:18:46.034Z,100929.53
2024-04-24T10:21:13.738Z,100922.00
2024-04-24T10:23:42.363Z,100932.94
2024-04-24T10:26:09.915Z,100934.59
2024-04-24T10:28:38.411Z,100925.34
2024-04-24T10:31:05.247Z,100914.84
2024-04-24T10:33:32.973Z,100897.53
2024-04-24T10:36:01.202Z,100899.22
2024-04-24T10:38:32.497Z,100909.31
2024-04-24T10:40:59.085Z,100900.38
2024-04-24T10:43:28.055Z,100903.56
2024-04-24T10:45:56.427Z,100896.53
2024-04-24T10:48:23.048Z,100892.16
2024-04-24T10:50:52.313Z,100887.44
2024-04-24T10:53:20.202Z,100874.13
2024-04-24T10:55:54.923Z,100867.56
2024-04-24T10:58:23.223Z,100873.09
2024-04-24T11:00:50.142Z,100873.91
2024-04-24T11:03:18.462Z,100885.72
2024-04-24T11:05:45.192Z,100883.81
2024-04-24T11:08:20.178Z,100875.47
2024-04-24T11:10:53.468Z,100883.13
2024-04-24T11:13:20.202Z,100883.22
2024-04-24T11:15:54.551Z,100886.69
2024-04-24T11:18:28.033Z,100880.72
2024-04-24T11:20:54.690Z,100877.38
2024-04-24T11:23:22.283Z,100868.13
2024-04-24T11:25:59.246Z,100864.94
2024-04-24T11:28:28.037Z,100869.72
2024-04-24T11:30:54.912Z,100861.13
2024-04-24T11:33:23.510Z,100863.63
2024-04-24T11:35:51.505Z,100863.38
2024-04-24T11:38:18.199Z,100866.41
2024-04-24T11:40:44.854Z,100867.19
2024-04-24T11:43:11.646Z,100877.28
2024-04-24T11:45:38.327Z,100870.09
2024-04-24T11:48:07.406Z,100886.16
2024-04-24T11:50:34.423Z,100892.44
2024-04-24T11:53:01.403Z,100888.66
2024-04-24T11:55:28.078Z,100898.25
2024-04-24T11:57:54.584Z,100896.34
2024-04-24T12:00:21.226Z,100885.22
2024-04-24T12:02:48.062Z,100886.25
2024-04-24T12:05:14.814Z,100867.06
2024-04-24T12:07:44.876Z,100878.34
2024-04-24T12:10:12.329Z,100874.03
2024-04-24T12:12:39.117Z,100876.00
2024-04-24T12:15:06.012Z,100863.44
2024-04-24T12:17:32.600Z,100857.88
2024-04-24T12:19:59.342Z,100872.47
2024-04-24T12:22:25.919Z,100876.72
2024-04-24T12:24:52.435Z,100884.94
2024-04-24T12:27:22.237Z,100885.59
2024-04-24T12:29:49.100Z,100871.03
2024-04-24T12:32:16.992Z,100865.75
2024-04-24T12:34:43.781Z,100868.84
2024-04-24T12:37:10.415Z,100874.19
2024-04-24T12:39:36.977Z,100856.31
2024-04-24T12:42:03.519Z,100855.47
2024-04-24T12:44:30.167Z,100850.50
2024-04-24T12:46:56.757Z,100839.06
2024-04-24T12:49:23.364Z,100844.00
2024-04-24T12:51:49.934Z,100849.22
2024-04-24T12:54:16.615Z,100847.16
2024-04-24T12:56:43.113Z,100843.19
2024-04-24T12:59:09.717Z,100846.75
2024-04-24T13:01:36.297Z,100861.09
2024-04-24T13:04:02.965Z,100862.97
2024-04-24T13:06:30.286Z,100856.94
2024-04-24T13:08:59.164Z,100853.56
2024-04-24T13:11:26.375Z,100858.09
2024-04-24T13:13:52.956Z,100852.84
2024-04-24T13:16:19.567Z,100846.72
2024-04-24T13:18:46.231Z,100851.31
2024-04-24T13:21:12.927Z,100854.22
2024-04-24T13:23:39.481Z,100849.75
2024-04-24T13:26:05.994Z,100858.19
2024-04-24T13:28:35.318Z,100871.00
2024-04-24T13:31:05.636Z,100876.09
2024-04-24T13:33:33.971Z,100868.94
2024-04-24T13:36:00.685Z,100871.88
2024-04-24T13:38:27.231Z,100870.31
2024-04-24T13:40:53.812Z,100862.75
2024-04-24T13:43:20.329Z,100857.41
2024-04-24T13:45:46.854Z,100849.97
2024-04-24T13:48:13.488Z,100853.19
2024-04-24T13:50:40.120Z,100850.72
2024-04-24T13:53:07.982Z,100842.75
2024-04-24T13:55:34.736Z,100844.13
2024-04-24T13:58:01.479Z,100843.69
2024-04-24T14:00:30.387Z,100836.25
2024-04-24T14:02:57.398Z,100835.91
2024-04-24T14:05:24.238Z,100828.41
2024-04-24T14:07:51.481Z,100842.94
2024-04-24T14:10:18.030Z,100882.53
2024-04-24T14:12:44.625Z,100890.31
2024-04-24T14:15:11.350Z,100881.56
2024-04-24T14:17:39.041Z,100889.09
2024-04-24T14:20:06.294Z,100892.97
2024-04-24T14:22:32.887Z,100878.06
2024-04-24T14:24:59.487Z,100870.56
2024-04-24T14:27:26.488Z,100876.69
2024-04-24T14:29:53.035Z,100875.41
2024-04-24T14:32:19.884Z,100866.22
2024-04-24T14:34:46.888Z,100878.56
2024-04-24T14:37:13.456Z,100873.63
2024-04-24T14:39:40.065Z,100878.81
2024-04-24T14:42:07.040Z,100877.13
2024-04-24T14:44:33.608Z,100885.03
2024-04-24T14:47:00.342Z,100885.91
2024-04-24T14:49:28.585Z,100893.59
2024-04-24T14:51:55.185Z,100884.78
2024-04-24T14:54:21.731Z,100891.31
2024-04-24T14:56:48.283Z,100884.53
2024-04-24T14:59:15.164Z,100876.25
2024-04-24T15:01:41.879Z,100872.63
2024-04-24T15:04:08.500Z,100879.59
2024-04-24T15:06:36.719Z,100898.81
2024-04-24T15:09:03.332Z,100903.75
2024-04-24T15:11:30.055Z,100909.75
2024-04-24T15:13:56.680Z,100903.97
2024-04-24T15:16:23.211Z,100890.25
2024-04-24T15:18:49.877Z,100877.72
2024-04-24T15:21:16.408Z,100872.81
2024-04-24T15:23:46.348Z,100861.50
2024-04-24T15:26:14.473Z,100876.16
2024-04-24T15:28:40.983Z,100868.00
2024-04-24T15:31:08.589Z,100867.25
2024-04-24T15:33:35.362Z,100871.03
2024-04-24T15:36:01.955Z,100874.31
2024-04-24T15:38:29.035Z,100873.84
2024-04-24T15:40:55.883Z,100868.56
2024-04-24T15:43:22.414Z,100865.41
2024-04-24T15:45:49.938Z,100864.19
2024-04-24T15:48:16.782Z,100865.31
2024-04-24T15:50:43.524Z,100863.63
2024-04-24T15:53:10.175Z,100860.66
2024-04-24T15:55:36.777Z,100853.97
2024-04-24T15:58:03.400Z,100861.66
2024-04-24T16:00:30.183Z,100852.88
2024-04-24T16:02:56.761Z,100858.59
2024-04-24T16:05:23.526Z,100855.16
2024-04-24T16:07:50.079Z,100868.44
2024-04-24T16:10:16.583Z,100868.06
2024-04-24T16:12:43.311Z,100865.66
2024-04-24T16:15:09.910Z,100854.25
2024-04-24T16:17:36.642Z,100862.31
2024-04-24T16:20:03.659Z,100864.09
2024-04-24T16:22:30.210Z,100857.53
2024-04-24T16:24:56.744Z,100868.28
2024-04-24T16:27:23.263Z,100867.38
2024-04-24T16:29:54.341Z,100870.28
2024-04-24T16:32:21.092Z,100876.41
2024-04-24T16:34:47.645Z,100878.09
2024-04-24T16:37:14.811Z,100873.84
2024-04-24T16:39:44.163Z,100876.06
2024-04-24T16:42:10.658Z,100872.72
2024-04-24T16:44:37.258Z,100866.78
2024-04-24T16:47:04.012Z,100867.91
2024-04-24T16:49:31.358Z,100867.38
2024-04-24T16:51:57.866Z,100870.53
2024-04-24T16:54:24.440Z,100867.31
2024-04-24T16:56:51.128Z,100862.97
2024-04-24T16:59:17.667Z,100874.94
2024-04-24T17:01:44.215Z,100873.38
2024-04-24T17:04:12.834Z,100871.34
2024-04-24T17:06:39.507Z,100882.28
2024-04-24T17:09:06.089Z,100875.41
2024-04-24T17:11:33.003Z,100879.38
2024-04-24T17:14:01.507Z,100875.78
2024-04-24T17:16:28.042Z,100878.00
2024-04-24T17:18:54.839Z,100881.06
2024-04-24T17:21:21.469Z,100882.97
2024-04-24T17:23:48.012Z,100869.47
2024-04-24T17:26:21.148Z,100874.56
2024-04-24T17:28:54.264Z,100877.13
2024-04-24T17:31:20.728Z,100870.09
2024-04-24T17:33:47.684Z,100872.13
2024-04-24T17:36:14.891Z,100867.94
2024-04-24T17:38:42.005Z,100867.94
2024-04-24T17:41:09.850Z,100876.28
2024-04-24T17:43:37.400Z,100878.22
2024-04-24T17:46:07.435Z,100888.66
2024-04-24T17:48:34.618Z,100881.91
2024-04-24T17:51:01.306Z,100885.31
2024-04-24T17:53:27.931Z,100886.16
2024-04-24T17:55:54.605Z,100882.44
2024-04-24T17:58:21.507Z,100894.03
2024-04-24T18:00:48.305Z,100892.91
2024-04-24T18:03:14.881Z,100894.22
2024-04-24T18:05:41.474Z,100890.97
2024-04-24T18:08:08.162Z,100893.22
2024-04-24T18:10:34.824Z,100896.56
2024-04-24T18:13:03.520Z,100895.56
2024-04-24T18:15:30.080Z,100891.91
2024-04-24T18:17:56.911Z,100894.59
2024-04-24T18:20:23.535Z,100904.50
2024-04-24T18:22:51.311Z,100914.03
2024-04-24T18:25:17.853Z,100910.09
2024-04-24T18:27:45.152Z,100904.06
2024-04-24T18:30:11.703Z,100908.06
2024-04-24T18:32:38.529Z,100920.19
2024-04-24T18:35:05.720Z,100911.06
2024-04-24T18:37:32.357Z,100920.13
2024-04-24T18:40:00.213Z,100924.19
2024-04-24T18:42:26.842Z,100926.03
2024-04-24T18:44:53.418Z,100925.19
2024-04-24T18:47:21.909Z,100916.28
2024-04-24T18:49:48.487Z,100924.03
2024-04-24T18:52:15.120Z,100918.19
2024-04-24T18:54:41.791Z,100916.84
2024-04-24T18:57:08.354Z,100917.84
2024-04-24T18:59:34.978Z,100916.53
2024-04-24T19:02:01.621Z,100922.81
2024-04-24T19:04:28.200Z,100929.03
2024-04-24T19:06:54.838Z,100923.81
2024-04-24T19:09:21.356Z,100929.88
2024-04-24T19:11:48.448Z,100930.88
2024-04-24T19:14:14.983Z,100932.56
2024-04-24T19:16:41.558Z,100937.59
2024-04-24T19:19:08.149Z,100935.28
2024-04-24T19:21:34.806Z,100938.44
2024-04-24T19:24:01.357Z,100943.66
2024-04-24T19:26:29.383Z,100943.81
2024-04-24T19:28:56.062Z,100945.50
2024-04-24T19:31:31.127Z,100956.56
2024-04-24T19:33:59.690Z,100960.91
2024-04-24T19:36:27.184Z,100961.59
2024-04-24T19:38:53.737Z,100955.19
2024-04-24T19:41:20.291Z,100958.41
2024-04-24T19:43:46.832Z,100962.25
2024-04-24T19:46:13.464Z,100961.25
2024-04-24T19:48:40.005Z,100965.13
2024-04-24T19:51:08.034Z,100968.47
2024-04-24T19:53:35.706Z,100964.41
2024-04-24T19:56:06.411Z,100956.22
2024-04-24T19:58:34.086Z,100954.56
2024-04-24T20:01:09.011Z,100959.09
2024-04-24T20:03:36.395Z,100961.59
2024-04-24T20:06:06.043Z,100961.09
2024-04-24T20:08:33.880Z,100950.72
2024-04-24T20:11:04.664Z,100959.59
2024-04-24T20:13:31.415Z,100951.72
2024-04-24T20:16:08.837Z,100953.91
2024-04-24T20:18:38.456Z,100959.44
2024-04-24T20:21:13.467Z,100963.66
2024-04-24T20:23:40.441Z,100965.31
2024-04-24T20:26:24.884Z,100961.97
2024-04-24T20:28:52.708Z,100967.34
2024-04-24T20:31:29.213Z,100975.72
2024-04-24T20:33:58.778Z,100990.69
2024-04-24T20:36:26.901Z,100979.31
2024-04-24T20:38:54.843Z,100986.03
2024-04-24T20:41:21.760Z,100972.44
2024-04-24T20:43:49.413Z,100978.81
2024-04-24T20:46:16.932Z,100979.16
2024-04-24T20:48:43.551Z,100965.72
2024-04-24T20:51:13.546Z,100966.41
2024-04-24T20:53:40.210Z,100964.56
2024-04-24T20:56:07.806Z,100968.06
2024-04-24T20:58:34.416Z,100969.09
2024-04-24T21:01:07.402Z,100962.72
2024-04-24T21:03:34.367Z,100959.19
2024-04-24T21:06:12.316Z,100950.63
2024-04-24T21:08:39.604Z,100948.13
2024-04-24T21:11:06.403Z,100939.44
2024-04-24T21:13:33.041Z,100941.09
2024-04-24T21:15:59.880Z,100938.09
2024-04-24T21:18:26.633Z,100941.63
2024-04-24T21:20:56.410Z,100936.06
2024-04-24T21:23:22.968Z,100945.09
2024-04-24T21:25:49.632Z,100948.16
2024-04-24T21:28:16.263Z,100943.13
2024-04-24T21:30:42.797Z,100942.63
2024-04-24T21:33:09.423Z,100945.66
2024-04-24T21:35:38.467Z,100946.16
2024-04-24T21:38:05.145Z,100947.47
2024-04-24T21:40:32.463Z,100932.44
2024-04-24T21:42:58.961Z,100936.63
2024-04-24T21:45:27.342Z,100938.78
2024-04-24T21:47:55.030Z,100938.28
2024-04-24T21:50:21.826Z,100944.81
2024-04-24T21:52:48.479Z,100938.13
2024-04-24T21:55:15.062Z,100943.13
2024-04-24T21:57:41.675Z,100944.97
2024-04-24T22:00:08.774Z,100947.66
2024-04-24T22:02:35.375Z,100938.28
2024-04-24T22:05:02.229Z,100934.78
2024-04-24T22:07:28.807Z,100939.63
2024-04-24T22:09:55.295Z,100934.28
2024-04-24T22:12:21.933Z,100929.91
2024-04-24T22:14:48.463Z,100932.41
2024-04-24T22:17:19.785Z,100933.91
2024-04-24T22:19:51.987Z,100931.75
2024-04-24T22:22:18.688Z,100932.41
2024-04-24T22:24:45.228Z,100920.69
2024-04-24T22:27:11.769Z,100919.97
2024-04-24T22:29:38.294Z,100920.78
2024-04-24T22:32:05.276Z,100922.47
2024-04-24T22:34:31.817Z,100916.94
2024-04-24T22:36:58.349Z,100911.09
2024-04-24T22:39:24.860Z,100917.59
2024-04-24T22:41:51.495Z,100913.94
2024-04-24T22:44:18.081Z,100920.28
2024-04-24T22:46:44.642Z,100916.78
2024-04-24T22:49:11.155Z,100911.44
2024-04-24T22:51:38.625Z,100914.44
2024-04-24T22:54:05.423Z,100907.56
2024-04-24T22:56:33.051Z,100907.88
2024-04-24T22:58:59.742Z,100907.25
2024-04-24T23:01:26.343Z,100917.94
2024-04-24T23:03:53.038Z,100910.22
2024-04-24T23:06:19.765Z,100909.56
2024-04-24T23:08:46.319Z,100908.19
2024-04-24T23:11:13.607Z,100904.03
2024-04-24T23:13:40.428Z,100908.84
2024-04-24T23:16:07.307Z,100905.34
2024-04-24T23:18:38.216Z,100905.00
2024-04-24T23:21:05.926Z,100901.81
2024-04-24T23:23:32.569Z,100906.31
2024-04-24T23:25:59.137Z,100904.28
2024-04-24T23:28:25.748Z,100902.44
2024-04-24T23:30:52.363Z,100903.78
2024-04-24T23:33:18.936Z,100899.72
2024-04-24T23:35:46.008Z,100904.41
2024-04-24T23:38:13.563Z,100897.06
2024-04-24T23:40:40.046Z,100891.53
2024-04-24T23:43:06.593Z,100892.16
2024-04-24T23:45:33.203Z,100887.81
2024-04-24T23:47:59.769Z,100887.47
2024-04-24T23:50:26.382Z,100885.97
2024-04-24T23:52:52.985Z,100882.13
2024-04-24T23:55:19.509Z,100876.13
2024-04-24T23:57:45.995Z,100871.44
